createdAt,value
2023-01-21T00:01:15.857Z,56.67
2023-01-21T00:03:44.172Z,59.63
2023-01-21T00:06:15.017Z,53.10
2023-01-21T00:08:43.199Z,66.80
2023-01-21T00:11:14.407Z,58.07
2023-01-21T00:13:42.685Z,61.67
2023-01-21T00:16:11.438Z,58.23
2023-01-21T00:18:39.591Z,58.40
2023-01-21T00:21:07.582Z,56.47
2023-01-21T00:23:37.029Z,64.33
2023-01-21T00:26:07.218Z,58.67
2023-01-21T00:28:37.173Z,63.23
2023-01-21T00:31:07.645Z,68.73
2023-01-21T00:33:37.238Z,63.63
2023-01-21T00:36:07.230Z,67.10
2023-01-21T00:38:37.105Z,91.47
2023-01-21T00:41:06.968Z,75.50
2023-01-21T00:43:35.465Z,71.60
2023-01-21T00:46:03.948Z,85.77
2023-01-21T00:48:32.213Z,91.07
2023-01-21T00:51:00.928Z,82.27
2023-01-21T00:53:30.080Z,86.90
2023-01-21T00:56:02.196Z,95.17
2023-01-21T00:58:34.637Z,79.67
2023-01-21T01:01:03.937Z,73.07
2023-01-21T01:03:32.333Z,74.27
2023-01-21T01:06:04.823Z,74.33
2023-01-21T01:08:33.482Z,72.73
2023-01-21T01:11:03.306Z,73.93
2023-01-21T01:13:31.991Z,76.67
2023-01-21T01:16:00.367Z,73.53
2023-01-21T01:18:30.322Z,66.53
2023-01-21T01:20:58.411Z,67.83
2023-01-21T01:23:26.951Z,70.70
2023-01-21T01:25:59.540Z,69.47
2023-01-21T01:28:29.672Z,66.47
2023-01-21T01:30:58.703Z,65.17
2023-01-21T01:33:27.897Z,73.27
2023-01-21T01:35:56.041Z,64.97
2023-01-21T01:38:24.184Z,66.00
2023-01-21T01:40:53.747Z,69.17
2023-01-21T01:43:24.195Z,66.47
2023-01-21T01:45:54.140Z,61.70
2023-01-21T01:48:25.989Z,60.83
2023-01-21T01:50:55.347Z,64.77
2023-01-21T01:53:23.819Z,67.13
2023-01-21T01:55:51.904Z,64.90
2023-01-21T01:58:22.215Z,64.10
2023-01-21T02:00:50.303Z,59.60
2023-01-21T02:03:37.380Z,71.47
2023-01-21T02:06:05.946Z,68.37
2023-01-21T02:08:36.316Z,67.17
2023-01-21T02:11:11.703Z,66.27
2023-01-21T02:13:40.552Z,64.20
2023-01-21T02:16:20.984Z,62.67
2023-01-21T02:18:57.320Z,61.33
2023-01-21T02:21:42.811Z,63.83
2023-01-21T02:24:56.795Z,53.20
2023-01-21T02:27:41.053Z,60.53
2023-01-21T02:30:38.963Z,57.10
2023-01-21T02:33:50.447Z,63.97
2023-01-21T02:36:32.903Z,57.67
2023-01-21T02:39:08.476Z,55.47
2023-01-21T02:41:51.889Z,58.53
2023-01-21T02:44:25.959Z,58.47
2023-01-21T02:47:00.511Z,57.80
2023-01-21T02:49:35.564Z,56.97
2023-01-21T02:52:03.658Z,59.47
2023-01-21T02:54:52.884Z,53.40
2023-01-21T02:57:35.853Z,55.43
2023-01-21T03:00:11.369Z,54.43
2023-01-21T03:03:14.352Z,56.53
2023-01-21T03:06:26.811Z,48.60
2023-01-21T03:08:58.769Z,56.20
2023-01-21T03:11:27.135Z,56.53
2023-01-21T03:14:16.953Z,55.10
2023-01-21T03:16:59.827Z,54.37
2023-01-21T03:19:35.591Z,56.23
2023-01-21T03:22:09.448Z,53.30
2023-01-21T03:24:39.536Z,52.00
2023-01-21T03:27:10.033Z,60.17
2023-01-21T03:29:42.233Z,54.83
2023-01-21T03:32:15.222Z,55.30
2023-01-21T03:34:48.656Z,57.97
2023-01-21T03:37:23.342Z,59.83
2023-01-21T03:40:00.269Z,51.73
2023-01-21T03:42:28.591Z,55.30
2023-01-21T03:44:56.910Z,54.80
2023-01-21T03:47:29.546Z,64.60
2023-01-21T03:50:01.742Z,51.50
2023-01-21T03:52:31.725Z,50.57
2023-01-21T03:55:00.501Z,56.73
2023-01-21T03:57:28.682Z,49.17
2023-01-21T03:59:56.691Z,53.67
2023-01-21T04:02:24.841Z,63.50
2023-01-21T04:04:53.237Z,53.63
2023-01-21T04:07:21.374Z,60.67
2023-01-21T04:09:50.841Z,53.23
2023-01-21T04:12:19.444Z,47.20
2023-01-21T04:14:47.433Z,54.47
2023-01-21T04:17:15.521Z,50.17
2023-01-21T04:19:43.582Z,51.87
2023-01-21T04:22:11.646Z,46.97
2023-01-21T04:24:39.656Z,55.23
2023-01-21T04:27:09.103Z,56.20
2023-01-21T04:29:37.163Z,52.90
2023-01-21T04:32:05.354Z,52.13
2023-01-21T04:34:33.460Z,56.07
2023-01-21T04:37:01.456Z,53.50
2023-01-21T04:39:29.527Z,50.33
2023-01-21T04:41:57.577Z,52.77
2023-01-21T04:44:27.020Z,55.07
2023-01-21T04:46:55.014Z,51.37
2023-01-21T04:49:23.067Z,52.23
2023-01-21T04:51:51.114Z,51.17
2023-01-21T04:54:19.226Z,48.00
2023-01-21T04:56:47.206Z,49.27
2023-01-21T04:59:15.347Z,56.73
2023-01-21T05:01:44.779Z,53.63
2023-01-21T05:04:12.784Z,58.90
2023-01-21T05:06:40.869Z,54.30
2023-01-21T05:09:09.064Z,52.37
2023-01-21T05:11:37.112Z,54.37
2023-01-21T05:14:05.101Z,54.70
2023-01-21T05:16:33.182Z,50.60
2023-01-21T05:19:05.112Z,53.83
2023-01-21T05:21:33.216Z,51.70
2023-01-21T05:24:01.295Z,52.57
2023-01-21T05:26:29.317Z,53.53
2023-01-21T05:28:57.455Z,47.73
2023-01-21T05:31:26.226Z,49.10
2023-01-21T05:33:54.359Z,52.70
2023-01-21T05:36:23.761Z,51.90
2023-01-21T05:38:51.796Z,56.23
2023-01-21T05:41:20.203Z,49.37
2023-01-21T05:43:48.277Z,48.30
2023-01-21T05:46:16.274Z,49.03
2023-01-21T05:48:44.385Z,48.13
2023-01-21T05:51:12.554Z,47.97
2023-01-21T05:53:41.948Z,53.03
2023-01-21T05:56:10.062Z,51.90
2023-01-21T05:58:38.069Z,47.53
2023-01-21T06:01:06.401Z,52.57
2023-01-21T06:03:35.675Z,45.73
2023-01-21T06:06:03.749Z,40.10
2023-01-21T06:08:31.838Z,48.10
2023-01-21T06:11:01.311Z,46.97
2023-01-21T06:13:29.565Z,44.83
2023-01-21T06:15:58.038Z,49.43
2023-01-21T06:18:26.569Z,49.83
2023-01-21T06:20:54.679Z,47.17
2023-01-21T06:23:22.697Z,46.80
2023-01-21T06:25:50.762Z,47.13
2023-01-21T06:28:20.113Z,44.77
2023-01-21T06:30:48.510Z,43.80
2023-01-21T06:33:16.559Z,49.60
2023-01-21T06:35:44.613Z,43.00
2023-01-21T06:38:12.584Z,53.23
2023-01-21T06:40:40.705Z,48.33
2023-01-21T06:43:09.118Z,52.43
2023-01-21T06:45:38.516Z,48.30
2023-01-21T06:48:06.799Z,49.23
2023-01-21T06:50:34.824Z,55.03
2023-01-21T06:53:02.830Z,52.50
2023-01-21T06:55:30.854Z,53.13
2023-01-21T06:57:58.895Z,50.23
2023-01-21T07:00:27.105Z,54.63
2023-01-21T07:02:58.831Z,49.47
2023-01-21T07:05:27.433Z,48.87
2023-01-21T07:07:56.238Z,51.80
2023-01-21T07:10:24.441Z,54.57
2023-01-21T07:12:53.422Z,51.80
2023-01-21T07:15:21.568Z,49.60
2023-01-21T07:17:49.594Z,53.20
2023-01-21T07:20:19.398Z,50.03
2023-01-21T07:22:47.453Z,55.23
2023-01-21T07:25:15.900Z,52.97
2023-01-21T07:27:44.137Z,53.17
2023-01-21T07:30:17.634Z,46.33
2023-01-21T07:32:46.086Z,55.33
2023-01-21T07:35:14.557Z,55.03
2023-01-21T07:37:44.136Z,47.90
2023-01-21T07:40:13.262Z,51.03
2023-01-21T07:42:41.321Z,48.47
2023-01-21T07:45:10.150Z,52.63
2023-01-21T07:47:38.155Z,61.53
2023-01-21T07:50:08.761Z,60.73
2023-01-21T07:52:37.029Z,50.33
2023-01-21T07:55:08.090Z,55.43
2023-01-21T07:57:36.215Z,56.17
2023-01-21T08:00:05.110Z,52.83
2023-01-21T08:02:39.576Z,54.00
2023-01-21T08:05:08.465Z,57.63
2023-01-21T08:07:36.631Z,57.67
2023-01-21T08:10:06.517Z,58.27
2023-01-21T08:12:34.601Z,53.40
2023-01-21T08:15:02.685Z,54.33
2023-01-21T08:17:30.794Z,58.07
2023-01-21T08:19:58.866Z,55.40
2023-01-21T08:22:26.998Z,48.73
2023-01-21T08:24:55.048Z,50.43
2023-01-21T08:27:24.589Z,56.17
2023-01-21T08:29:52.695Z,54.73
2023-01-21T08:32:20.876Z,53.90
2023-01-21T08:34:48.987Z,56.43
2023-01-21T08:37:17.076Z,59.10
2023-01-21T08:39:45.156Z,52.07
2023-01-21T08:42:13.198Z,52.70
2023-01-21T08:44:42.627Z,62.40
2023-01-21T08:47:10.671Z,57.27
2023-01-21T08:49:38.812Z,55.80
2023-01-21T08:52:07.054Z,53.27
2023-01-21T08:54:35.120Z,58.73
2023-01-21T08:57:03.203Z,54.37
2023-01-21T08:59:31.349Z,55.77
2023-01-21T09:02:00.816Z,56.03
2023-01-21T09:04:28.940Z,61.17
2023-01-21T09:06:57.029Z,56.77
2023-01-21T09:09:25.249Z,61.73
2023-01-21T09:11:53.544Z,58.03
2023-01-21T09:14:21.713Z,58.50
2023-01-21T09:16:50.437Z,52.77
2023-01-21T09:19:19.864Z,62.17
2023-01-21T09:21:47.942Z,56.23
2023-01-21T09:24:16.040Z,58.30
2023-01-21T09:26:45.068Z,54.70
2023-01-21T09:29:13.291Z,59.57
2023-01-21T09:31:41.515Z,57.30
2023-01-21T09:34:11.873Z,58.47
2023-01-21T09:36:41.465Z,65.40
2023-01-21T09:39:09.767Z,64.77
2023-01-21T09:41:39.739Z,62.17
2023-01-21T09:44:17.231Z,57.47
2023-01-21T09:46:52.508Z,58.93
2023-01-21T09:49:25.072Z,59.80
2023-01-21T09:52:02.377Z,53.47
2023-01-21T09:54:33.921Z,60.67
2023-01-21T09:57:20.189Z,52.33
2023-01-21T09:59:58.729Z,50.80
2023-01-21T10:02:31.733Z,52.27
2023-01-21T10:05:18.285Z,55.90
2023-01-21T10:07:54.183Z,50.77
2023-01-21T10:10:25.881Z,48.80
2023-01-21T10:13:05.706Z,54.63
2023-01-21T10:15:47.720Z,45.50
2023-01-21T10:18:19.610Z,49.63
2023-01-21T10:20:52.386Z,51.30
2023-01-21T10:23:27.126Z,47.13
2023-01-21T10:25:57.316Z,47.57
2023-01-21T10:28:30.510Z,43.03
2023-01-21T10:31:04.115Z,49.47
2023-01-21T10:33:34.267Z,40.73
2023-01-21T10:36:22.288Z,46.33
2023-01-21T10:39:02.414Z,38.67
2023-01-21T10:41:42.948Z,38.60
2023-01-21T10:44:20.253Z,41.07
2023-01-21T10:46:56.745Z,39.33
2023-01-21T10:49:33.186Z,34.97
2023-01-21T10:52:07.028Z,34.97
2023-01-21T10:54:46.199Z,35.03
2023-01-21T10:57:31.460Z,39.43
2023-01-21T11:00:02.714Z,38.13
2023-01-21T11:02:32.491Z,32.63
2023-01-21T11:05:03.350Z,33.20
2023-01-21T11:07:35.368Z,30.80
2023-01-21T11:10:07.095Z,32.20
2023-01-21T11:12:35.235Z,32.43
2023-01-21T11:15:09.158Z,30.73
2023-01-21T11:17:41.295Z,28.60
2023-01-21T11:20:21.764Z,30.90
2023-01-21T11:22:50.889Z,30.00
2023-01-21T11:25:36.924Z,26.70
2023-01-21T11:28:05.379Z,26.50
2023-01-21T11:30:50.202Z,26.13
2023-01-21T11:33:26.666Z,23.67
2023-01-21T11:35:56.069Z,24.40
2023-01-21T11:38:34.231Z,24.30
2023-01-21T11:41:06.677Z,21.83
2023-01-21T11:43:41.104Z,23.80
2023-01-21T11:46:42.095Z,20.40
2023-01-21T11:49:30.503Z,19.95
2023-01-21T11:52:19.803Z,19.42
2023-01-21T11:54:48.697Z,18.23
2023-01-21T11:57:28.948Z,18.60
2023-01-21T12:00:07.829Z,20.48
2023-01-21T12:02:43.624Z,16.25
2023-01-21T12:05:17.073Z,16.77
2023-01-21T12:07:50.536Z,14.27
2023-01-21T12:10:29.140Z,15.18
2023-01-21T12:13:20.106Z,14.32
2023-01-21T12:16:06.696Z,12.88
2023-01-21T12:18:48.692Z,12.40
2023-01-21T12:21:23.750Z,13.35
2023-01-21T12:24:05.370Z,12.98
2023-01-21T12:26:38.901Z,12.23
2023-01-21T12:29:34.249Z,11.88
2023-01-21T12:32:08.903Z,13.18
2023-01-21T12:34:43.425Z,12.35
2023-01-21T12:37:17.675Z,11.90
2023-01-21T12:39:48.543Z,11.85
2023-01-21T12:42:22.281Z,11.80
2023-01-21T12:44:56.132Z,11.90
2023-01-21T12:47:31.860Z,11.18
2023-01-21T12:50:19.833Z,11.48
2023-01-21T12:52:58.398Z,10.35
2023-01-21T12:55:33.462Z,10.23
2023-01-21T12:58:06.186Z,13.00
2023-01-21T13:00:38.557Z,9.38
2023-01-21T13:03:21.751Z,10.35
2023-01-21T13:05:55.963Z,10.98
2023-01-21T13:08:35.703Z,11.00
2023-01-21T13:11:08.657Z,11.60
2023-01-21T13:13:39.486Z,12.77
2023-01-21T13:16:11.161Z,10.85
2023-01-21T13:18:40.675Z,9.02
2023-01-21T13:21:17.232Z,9.30
2023-01-21T13:23:50.238Z,10.88
2023-01-21T13:26:24.866Z,10.70
2023-01-21T13:28:58.854Z,9.68
2023-01-21T13:31:35.432Z,11.15
2023-01-21T13:34:10.190Z,10.07
2023-01-21T13:36:52.746Z,10.32
2023-01-21T13:39:28.520Z,10.43
2023-01-21T13:42:08.993Z,10.80
2023-01-21T13:44:58.715Z,10.90
2023-01-21T13:47:42.248Z,12.43
2023-01-21T13:50:19.993Z,10.95
2023-01-21T13:53:06.997Z,12.25
2023-01-21T13:55:47.857Z,11.25
2023-01-21T13:58:20.773Z,11.50
2023-01-21T14:00:54.820Z,11.07
2023-01-21T14:03:30.179Z,11.52
2023-01-21T14:06:06.094Z,11.80
2023-01-21T14:08:37.140Z,12.07
2023-01-21T14:11:11.180Z,11.57
2023-01-21T14:14:08.237Z,11.27
2023-01-21T14:17:01.659Z,13.73
2023-01-21T14:19:55.331Z,11.18
2023-01-21T14:22:41.727Z,12.55
2023-01-21T14:25:23.805Z,12.70
2023-01-21T14:28:03.515Z,14.23
2023-01-21T14:30:38.557Z,14.43
2023-01-21T14:33:13.206Z,13.80
2023-01-21T14:35:48.928Z,14.38
2023-01-21T14:38:27.552Z,12.52
2023-01-21T14:41:06.656Z,16.30
2023-01-21T14:43:49.680Z,14.70
2023-01-21T14:46:26.829Z,15.45
2023-01-21T14:49:00.277Z,13.95
2023-01-21T14:51:31.760Z,17.13
2023-01-21T14:54:03.167Z,15.35
2023-01-21T14:56:33.540Z,16.52
2023-01-21T14:59:04.474Z,19.88
2023-01-21T15:01:38.835Z,16.93
2023-01-21T15:04:18.043Z,17.05
2023-01-21T15:06:48.472Z,18.52
2023-01-21T15:09:23.103Z,19.70
2023-01-21T15:11:56.739Z,18.00
2023-01-21T15:14:28.941Z,18.00
2023-01-21T15:16:57.149Z,17.67
2023-01-21T15:19:28.847Z,19.05
2023-01-21T15:22:38.917Z,17.70
2023-01-21T15:25:34.235Z,18.75
2023-01-21T15:28:35.897Z,17.70
2023-01-21T15:31:06.781Z,16.10
2023-01-21T15:33:40.221Z,19.70
2023-01-21T15:36:21.540Z,16.87
2023-01-21T15:38:51.930Z,18.33
2023-01-21T15:41:39.388Z,19.37
2023-01-21T15:44:46.188Z,18.03
2023-01-21T15:47:40.165Z,19.70
2023-01-21T15:50:18.583Z,20.30
2023-01-21T15:53:11.279Z,20.00
2023-01-21T15:56:01.379Z,20.83
2023-01-21T15:58:41.145Z,19.87
2023-01-21T16:01:15.947Z,21.13
2023-01-21T16:03:48.533Z,20.10
2023-01-21T16:06:26.777Z,19.50
2023-01-21T16:09:04.534Z,20.83
2023-01-21T16:11:57.131Z,24.40
2023-01-21T16:14:39.302Z,26.07
2023-01-21T16:17:18.885Z,19.83
2023-01-21T16:19:49.658Z,21.27
2023-01-21T16:22:22.805Z,20.33
2023-01-21T16:24:55.785Z,24.17
2023-01-21T16:27:27.418Z,22.67
2023-01-21T16:29:59.856Z,23.57
2023-01-21T16:32:28.070Z,22.97
2023-01-21T16:34:56.140Z,20.63
2023-01-21T16:37:26.185Z,20.97
2023-01-21T16:39:56.004Z,25.13
2023-01-21T16:42:32.707Z,25.87
2023-01-21T16:45:01.565Z,24.93
2023-01-21T16:47:37.627Z,24.73
2023-01-21T16:50:14.949Z,21.83
2023-01-21T16:52:43.116Z,26.10
2023-01-21T16:55:19.699Z,25.73
2023-01-21T16:57:52.937Z,22.17
2023-01-21T17:00:25.871Z,23.77
2023-01-21T17:02:54.963Z,23.10
2023-01-21T17:05:24.164Z,26.73
2023-01-21T17:07:55.990Z,26.93
2023-01-21T17:10:28.041Z,24.77
2023-01-21T17:13:02.629Z,28.73
2023-01-21T17:15:36.130Z,27.77
2023-01-21T17:18:07.194Z,28.87
2023-01-21T17:20:38.099Z,25.03
2023-01-21T17:23:09.809Z,26.33
2023-01-21T17:25:38.570Z,28.57
2023-01-21T17:28:30.252Z,29.50
2023-01-21T17:31:13.192Z,26.40
2023-01-21T17:33:41.884Z,32.27
2023-01-21T17:36:13.240Z,28.77
2023-01-21T17:38:44.285Z,28.53
2023-01-21T17:41:24.515Z,29.73
2023-01-21T17:43:56.673Z,30.57
2023-01-21T17:46:25.985Z,31.40
2023-01-21T17:48:58.884Z,33.53
2023-01-21T17:51:31.580Z,37.90
2023-01-21T17:54:02.203Z,34.67
2023-01-21T17:56:42.182Z,33.63
2023-01-21T17:59:31.589Z,35.60
2023-01-21T18:01:59.742Z,33.00
2023-01-21T18:04:27.914Z,31.63
2023-01-21T18:06:57.322Z,30.30
2023-01-21T18:09:28.298Z,34.63
2023-01-21T18:11:58.389Z,34.73
2023-01-21T18:14:29.038Z,32.50
2023-01-21T18:16:57.496Z,32.10
2023-01-21T18:19:32.313Z,38.27
2023-01-21T18:22:01.490Z,36.40
2023-01-21T18:24:41.847Z,35.20
2023-01-21T18:27:12.575Z,35.13
2023-01-21T18:29:42.839Z,31.90
2023-01-21T18:32:13.225Z,41.40
2023-01-21T18:34:41.288Z,37.03
2023-01-21T18:37:14.047Z,30.57
2023-01-21T18:39:42.645Z,42.50
2023-01-21T18:42:15.689Z,46.37
2023-01-21T18:44:45.574Z,64.53
2023-01-21T18:47:14.927Z,39.60
2023-01-21T18:49:43.418Z,53.70
2023-01-21T18:52:11.917Z,54.07
2023-01-21T18:54:39.946Z,45.33
2023-01-21T18:57:12.479Z,44.57
2023-01-21T18:59:40.511Z,48.47
2023-01-21T19:02:15.238Z,42.90
2023-01-21T19:04:43.449Z,45.60
2023-01-21T19:07:15.446Z,45.07
2023-01-21T19:09:46.116Z,50.13
2023-01-21T19:12:14.811Z,46.13
2023-01-21T19:14:42.891Z,46.00
2023-01-21T19:17:14.409Z,39.63
2023-01-21T19:19:42.692Z,43.40
2023-01-21T19:22:13.646Z,41.27
2023-01-21T19:24:42.171Z,43.70
2023-01-21T19:27:15.618Z,42.13
2023-01-21T19:29:43.897Z,45.70
2023-01-21T19:32:15.296Z,45.57
2023-01-21T19:34:43.968Z,48.00
2023-01-21T19:37:15.231Z,52.23
2023-01-21T19:39:43.607Z,55.87
2023-01-21T19:42:12.490Z,56.60
2023-01-21T19:44:44.284Z,55.33
2023-01-21T19:47:19.860Z,58.97
2023-01-21T19:49:47.967Z,60.50
2023-01-21T19:52:16.071Z,65.53
2023-01-21T19:54:46.751Z,57.37
2023-01-21T19:57:15.643Z,59.10
2023-01-21T19:59:45.117Z,53.70
2023-01-21T20:02:13.523Z,56.63
2023-01-21T20:04:43.098Z,57.07
2023-01-21T20:07:14.045Z,56.50
2023-01-21T20:09:42.142Z,65.43
2023-01-21T20:12:12.411Z,66.47
2023-01-21T20:14:40.466Z,65.17
2023-01-21T20:17:13.935Z,56.07
2023-01-21T20:19:43.386Z,58.63
2023-01-21T20:22:13.414Z,61.00
2023-01-21T20:24:41.461Z,57.17
2023-01-21T20:27:12.817Z,64.53
2023-01-21T20:29:49.621Z,47.27
2023-01-21T20:32:24.022Z,58.70
2023-01-21T20:34:53.532Z,56.77
2023-01-21T20:37:21.666Z,56.77
2023-01-21T20:39:49.743Z,50.73
2023-01-21T20:42:17.829Z,53.10
2023-01-21T20:44:45.913Z,55.37
2023-01-21T20:47:14.611Z,51.30
2023-01-21T20:49:43.467Z,49.90
2023-01-21T20:52:13.415Z,51.50
2023-01-21T20:54:41.724Z,53.77
2023-01-21T20:57:13.336Z,48.10
2023-01-21T20:59:41.477Z,49.63
2023-01-21T21:02:12.524Z,49.70
2023-01-21T21:04:40.978Z,47.73
2023-01-21T21:07:16.583Z,48.33
2023-01-21T21:09:44.683Z,47.53
2023-01-21T21:12:12.716Z,46.93
2023-01-21T21:14:40.754Z,51.90
2023-01-21T21:17:11.711Z,52.33
2023-01-21T21:19:39.743Z,51.63
2023-01-21T21:22:07.833Z,43.43
2023-01-21T21:24:37.273Z,45.37
2023-01-21T21:27:07.563Z,48.93
2023-01-21T21:29:35.649Z,43.83
2023-01-21T21:32:04.627Z,52.90
2023-01-21T21:34:32.797Z,52.20
2023-01-21T21:37:00.833Z,49.63
2023-01-21T21:39:28.943Z,47.90
2023-01-21T21:42:16.184Z,50.27
2023-01-21T21:44:44.901Z,50.17
2023-01-21T21:47:35.647Z,53.13
2023-01-21T21:50:03.849Z,43.80
2023-01-21T21:52:32.854Z,43.50
2023-01-21T21:55:00.894Z,43.37
2023-01-21T21:57:30.358Z,44.23
2023-01-21T21:59:58.346Z,46.70
2023-01-21T22:02:26.514Z,42.63
2023-01-21T22:04:54.962Z,42.67
2023-01-21T22:07:23.056Z,41.40
2023-01-21T22:09:51.068Z,43.23
2023-01-21T22:12:19.081Z,41.67
2023-01-21T22:14:48.566Z,43.40
2023-01-21T22:17:16.727Z,42.07
2023-01-21T22:19:44.768Z,36.90
2023-01-21T22:22:12.766Z,41.33
2023-01-21T22:24:40.872Z,43.37
2023-01-21T22:27:08.883Z,38.97
2023-01-21T22:29:36.924Z,38.23
2023-01-21T22:32:06.552Z,38.33
2023-01-21T22:34:34.650Z,42.17
2023-01-21T22:37:02.738Z,37.37
2023-01-21T22:39:31.231Z,37.77
2023-01-21T22:42:00.257Z,37.10
2023-01-21T22:44:28.396Z,36.27
2023-01-21T22:46:56.551Z,34.33
2023-01-21T22:49:25.988Z,38.57
2023-01-21T22:51:55.056Z,36.33
2023-01-21T22:54:23.108Z,39.27
2023-01-21T22:56:53.026Z,35.57
2023-01-21T22:59:22.013Z,38.07
2023-01-21T23:01:51.212Z,45.77
2023-01-21T23:04:19.373Z,45.07
2023-01-21T23:06:51.179Z,37.13
2023-01-21T23:09:19.258Z,40.63
2023-01-21T23:11:47.439Z,38.20
2023-01-21T23:14:16.547Z,39.60
2023-01-21T23:16:44.615Z,35.30
2023-01-21T23:19:13.522Z,34.63
2023-01-21T23:21:41.618Z,39.07
2023-01-21T23:24:11.283Z,38.63
2023-01-21T23:26:39.391Z,40.33
2023-01-21T23:29:07.404Z,37.30
2023-01-21T23:31:35.825Z,35.30
2023-01-21T23:34:04.369Z,38.70
2023-01-21T23:36:32.429Z,34.17
2023-01-21T23:39:00.467Z,38.23
2023-01-21T23:41:29.943Z,37.63
2023-01-21T23:43:59.759Z,40.17
2023-01-21T23:46:27.971Z,36.87
2023-01-21T23:48:56.109Z,38.40
2023-01-21T23:51:24.223Z,32.10
2023-01-21T23:53:52.311Z,33.00
2023-01-21T23:56:22.798Z,34.40
2023-01-21T23:58:53.045Z,35.23
